sensor_id;sensor_type;location;lat;lon;timestamp;pressure;altitude;pressure_sealevel;temperature;humidity
18988;BME280;5494;51.796;10.952;2023-09-12T00:00:54;98636.03;;;23.14;75.46
18988;BME280;5494;51.796;10.952;2023-09-12T00:03:23;98636.53;;;23.09;75.35
18988;BME280;5494;51.796;10.952;2023-09-12T00:05:52;98633.91;;;23.09;75.34
18988;BME280;5494;51.796;10.952;2023-09-12T00:08:21;98632.03;;;23.10;75.21
18988;BME280;5494;51.796;10.952;2023-09-12T00:11:01;98632.41;;;23.15;74.51
18988;BME280;5494;51.796;10.952;2023-09-12T00:13:31;98634.38;;;23.13;74.99
18988;BME280;5494;51.796;10.952;2023-09-12T00:15:59;98629.38;;;23.10;74.92
18988;BME280;5494;51.796;10.952;2023-09-12T00:18:27;98634.06;;;23.08;75.08
18988;BME280;5494;51.796;10.952;2023-09-12T00:20:56;98623.28;;;23.09;74.64
18988;BME280;5494;51.796;10.952;2023-09-12T00:23:27;98626.56;;;23.11;74.56
18988;BME280;5494;51.796;10.952;2023-09-12T00:25:56;98625.59;;;23.04;74.76
18988;BME280;5494;51.796;10.952;2023-09-12T00:28:26;98621.09;;;23.05;75.16
18988;BME280;5494;51.796;10.952;2023-09-12T00:30:55;98621.28;;;23.03;74.85
18988;BME280;5494;51.796;10.952;2023-09-12T00:33:23;98612.16;;;23.06;74.38
18988;BME280;5494;51.796;10.952;2023-09-12T00:35:51;98619.13;;;23.07;75.08
18988;BME280;5494;51.796;10.952;2023-09-12T00:38:20;98610.50;;;23.05;74.67
18988;BME280;5494;51.796;10.952;2023-09-12T00:40:48;98615.81;;;23.05;74.30
18988;BME280;5494;51.796;10.952;2023-09-12T00:43:19;98612.84;;;23.00;75.01
18988;BME280;5494;51.796;10.952;2023-09-12T00:45:48;98612.00;;;22.99;75.00
18988;BME280;5494;51.796;10.952;2023-09-12T00:48:18;98604.19;;;22.98;74.84
18988;BME280;5494;51.796;10.952;2023-09-12T00:50:49;98608.34;;;23.00;74.67
18988;BME280;5494;51.796;10.952;2023-09-12T00:53:20;98616.16;;;23.02;74.88
18988;BME280;5494;51.796;10.952;2023-09-12T00:55:55;98609.03;;;23.02;74.14
18988;BME280;5494;51.796;10.952;2023-09-12T00:58:25;98611.69;;;23.02;74.67
18988;BME280;5494;51.796;10.952;2023-09-12T01:00:56;98609.34;;;23.07;74.57
18988;BME280;5494;51.796;10.952;2023-09-12T01:03:25;98608.16;;;23.10;74.21
18988;BME280;5494;51.796;10.952;2023-09-12T01:05:55;98609.84;;;23.11;75.18
18988;BME280;5494;51.796;10.952;2023-09-12T01:08:24;98607.84;;;23.05;76.22
18988;BME280;5494;51.796;10.952;2023-09-12T01:10:55;98605.38;;;22.95;77.28
18988;BME280;5494;51.796;10.952;2023-09-12T01:13:24;98603.88;;;22.93;77.27
18988;BME280;5494;51.796;10.952;2023-09-12T01:15:53;98608.50;;;22.99;76.47
18988;BME280;5494;51.796;10.952;2023-09-12T01:18:22;98610.84;;;23.02;74.36
18988;BME280;5494;51.796;10.952;2023-09-12T01:21:15;98610.81;;;23.10;73.89
18988;BME280;5494;51.796;10.952;2023-09-12T01:24:13;98609.00;;;23.10;73.83
18988;BME280;5494;51.796;10.952;2023-09-12T01:27:11;98617.31;;;23.15;73.45
18988;BME280;5494;51.796;10.952;2023-09-12T01:29:42;98614.97;;;23.21;72.85
18988;BME280;5494;51.796;10.952;2023-09-12T01:32:12;98606.88;;;23.22;72.61
18988;BME280;5494;51.796;10.952;2023-09-12T01:34:42;98608.00;;;23.20;73.18
18988;BME280;5494;51.796;10.952;2023-09-12T01:37:10;98607.19;;;23.27;72.88
18988;BME280;5494;51.796;10.952;2023-09-12T01:39:39;98608.84;;;23.28;72.78
18988;BME280;5494;51.796;10.952;2023-09-12T01:42:09;98610.16;;;23.32;72.46
18988;BME280;5494;51.796;10.952;2023-09-12T01:44:43;98614.81;;;23.22;73.51
18988;BME280;5494;51.796;10.952;2023-09-12T01:47:13;98613.31;;;23.11;73.92
18988;BME280;5494;51.796;10.952;2023-09-12T01:49:46;98615.34;;;23.09;74.60
18988;BME280;5494;51.796;10.952;2023-09-12T01:52:15;98606.19;;;23.04;76.11
18988;BME280;5494;51.796;10.952;2023-09-12T01:54:44;98606.84;;;22.98;76.40
18988;BME280;5494;51.796;10.952;2023-09-12T01:57:14;98610.84;;;22.86;77.90
18988;BME280;5494;51.796;10.952;2023-09-12T01:59:44;98602.16;;;22.67;79.20
18988;BME280;5494;51.796;10.952;2023-09-12T02:02:12;98586.47;;;22.74;79.57
18988;BME280;5494;51.796;10.952;2023-09-12T02:04:40;98593.03;;;22.46;81.26
18988;BME280;5494;51.796;10.952;2023-09-12T02:07:08;98591.19;;;22.38;83.46
18988;BME280;5494;51.796;10.952;2023-09-12T02:09:37;98592.84;;;22.39;82.99
18988;BME280;5494;51.796;10.952;2023-09-12T02:12:05;98586.66;;;22.22;85.43
18988;BME280;5494;51.796;10.952;2023-09-12T02:14:34;98584.81;;;22.15;86.60
18988;BME280;5494;51.796;10.952;2023-09-12T02:17:03;98581.13;;;22.08;87.20
18988;BME280;5494;51.796;10.952;2023-09-12T02:19:31;98588.75;;;22.03;87.63
18988;BME280;5494;51.796;10.952;2023-09-12T02:22:00;98579.28;;;22.00;87.88
18988;BME280;5494;51.796;10.952;2023-09-12T02:24:28;98578.91;;;21.95;89.05
18988;BME280;5494;51.796;10.952;2023-09-12T02:26:56;98573.28;;;21.90;88.52
18988;BME280;5494;51.796;10.952;2023-09-12T02:29:24;98576.91;;;21.89;88.85
18988;BME280;5494;51.796;10.952;2023-09-12T02:31:52;98578.41;;;21.91;89.00
18988;BME280;5494;51.796;10.952;2023-09-12T02:34:21;98579.69;;;21.87;89.46
18988;BME280;5494;51.796;10.952;2023-09-12T02:36:50;98578.88;;;21.87;89.85
18988;BME280;5494;51.796;10.952;2023-09-12T02:39:18;98582.00;;;21.82;89.94
18988;BME280;5494;51.796;10.952;2023-09-12T02:41:46;98576.72;;;21.82;90.01
18988;BME280;5494;51.796;10.952;2023-09-12T02:44:14;98577.41;;;21.84;90.05
18988;BME280;5494;51.796;10.952;2023-09-12T02:46:43;98583.97;;;21.80;90.55
18988;BME280;5494;51.796;10.952;2023-09-12T02:49:11;98583.97;;;21.80;90.55
18988;BME280;5494;51.796;10.952;2023-09-12T02:51:41;98589.22;;;21.98;89.64
18988;BME280;5494;51.796;10.952;2023-09-12T02:54:09;98588.81;;;21.93;89.83
18988;BME280;5494;51.796;10.952;2023-09-12T02:56:37;98591.47;;;21.85;90.44
18988;BME280;5494;51.796;10.952;2023-09-12T02:59:05;98611.22;;;21.73;91.83
18988;BME280;5494;51.796;10.952;2023-09-12T03:01:33;98610.78;;;21.85;91.95
18988;BME280;5494;51.796;10.952;2023-09-12T03:04:02;98621.94;;;21.63;91.70
18988;BME280;5494;51.796;10.952;2023-09-12T03:06:30;98615.59;;;21.56;93.26
18988;BME280;5494;51.796;10.952;2023-09-12T03:09:01;98614.50;;;21.41;95.75
18988;BME280;5494;51.796;10.952;2023-09-12T03:11:29;98619.13;;;21.39;94.96
18988;BME280;5494;51.796;10.952;2023-09-12T03:13:57;98619.13;;;21.39;95.59
18988;BME280;5494;51.796;10.952;2023-09-12T03:16:25;98618.06;;;21.57;94.29
18988;BME280;5494;51.796;10.952;2023-09-12T03:18:53;98620.13;;;21.72;92.45
18988;BME280;5494;51.796;10.952;2023-09-12T03:21:22;98624.69;;;21.87;90.10
18988;BME280;5494;51.796;10.952;2023-09-12T03:23:50;98631.16;;;21.85;90.06
18988;BME280;5494;51.796;10.952;2023-09-12T03:26:20;98630.41;;;22.00;88.98
18988;BME280;5494;51.796;10.952;2023-09-12T03:28:49;98637.06;;;22.05;88.70
18988;BME280;5494;51.796;10.952;2023-09-12T03:31:18;98627.31;;;22.05;88.53
18988;BME280;5494;51.796;10.952;2023-09-12T03:33:46;98633.66;;;21.94;90.99
18988;BME280;5494;51.796;10.952;2023-09-12T03:36:17;98628.03;;;21.89;92.19
18988;BME280;5494;51.796;10.952;2023-09-12T03:38:46;98632.44;;;21.81;93.74
18988;BME280;5494;51.796;10.952;2023-09-12T03:41:15;98635.72;;;21.75;93.64
18988;BME280;5494;51.796;10.952;2023-09-12T03:43:46;98639.41;;;21.56;94.78
18988;BME280;5494;51.796;10.952;2023-09-12T03:46:14;98638.22;;;21.50;96.74
18988;BME280;5494;51.796;10.952;2023-09-12T03:48:43;98643.41;;;21.60;95.36
18988;BME280;5494;51.796;10.952;2023-09-12T03:51:12;98652.78;;;21.54;96.24
18988;BME280;5494;51.796;10.952;2023-09-12T03:53:41;98647.59;;;21.45;97.83
18988;BME280;5494;51.796;10.952;2023-09-12T03:56:09;98649.56;;;21.43;98.40
18988;BME280;5494;51.796;10.952;2023-09-12T03:58:39;98641.66;;;21.25;100.00
18988;BME280;5494;51.796;10.952;2023-09-12T04:01:09;98641.22;;;21.30;100.00
18988;BME280;5494;51.796;10.952;2023-09-12T04:03:37;98643.69;;;21.31;100.00
18988;BME280;5494;51.796;10.952;2023-09-12T04:06:06;98645.50;;;21.31;100.00
18988;BME280;5494;51.796;10.952;2023-09-12T04:08:34;98643.25;;;21.18;100.00
18988;BME280;5494;51.796;10.952;2023-09-12T04:11:02;98640.69;;;21.26;100.00
18988;BME280;5494;51.796;10.952;2023-09-12T04:13:30;98641.88;;;21.14;100.00
18988;BME280;5494;51.796;10.952;2023-09-12T04:15:59;98639.53;;;21.11;100.00
18988;BME280;5494;51.796;10.952;2023-09-12T04:18:28;98649.38;;;21.01;100.00
18988;BME280;5494;51.796;10.952;2023-09-12T04:20:56;98643.16;;;20.92;100.00
18988;BME280;5494;51.796;10.952;2023-09-12T04:23:25;98648.22;;;20.86;100.00
18988;BME280;5494;51.796;10.952;2023-09-12T04:25:53;98650.63;;;20.79;100.00
18988;BME280;5494;51.796;10.952;2023-09-12T04:28:21;98655.38;;;20.75;100.00
18988;BME280;5494;51.796;10.952;2023-09-12T04:31:01;98660.75;;;20.66;100.00
18988;BME280;5494;51.796;10.952;2023-09-12T04:33:32;98655.88;;;20.61;100.00
18988;BME280;5494;51.796;10.952;2023-09-12T04:36:00;98659.53;;;20.60;100.00
18988;BME280;5494;51.796;10.952;2023-09-12T04:38:29;98666.88;;;20.66;100.00
18988;BME280;5494;51.796;10.952;2023-09-12T04:41:02;98661.41;;;20.68;100.00
18988;BME280;5494;51.796;10.952;2023-09-12T04:43:32;98664.81;;;20.60;100.00
18988;BME280;5494;51.796;10.952;2023-09-12T04:46:00;98657.31;;;20.56;100.00
18988;BME280;5494;51.796;10.952;2023-09-12T04:48:29;98660.28;;;20.53;100.00
18988;BME280;5494;51.796;10.952;2023-09-12T04:50:59;98652.03;;;20.56;100.00
18988;BME280;5494;51.796;10.952;2023-09-12T04:53:27;98650.38;;;20.55;100.00
18988;BME280;5494;51.796;10.952;2023-09-12T04:56:02;98650.78;;;20.60;100.00
18988;BME280;5494;51.796;10.952;2023-09-12T04:58:30;98664.22;;;20.66;100.00
18988;BME280;5494;51.796;10.952;2023-09-12T05:00:59;98659.44;;;20.70;100.00
18988;BME280;5494;51.796;10.952;2023-09-12T05:03:27;98658.72;;;20.77;100.00
18988;BME280;5494;51.796;10.952;2023-09-12T05:05:55;98661.22;;;20.79;100.00
18988;BME280;5494;51.796;10.952;2023-09-12T05:08:24;98664.31;;;20.74;100.00
18988;BME280;5494;51.796;10.952;2023-09-12T05:10:53;98675.25;;;20.79;100.00
18988;BME280;5494;51.796;10.952;2023-09-12T05:13:21;98671.03;;;20.87;100.00
18988;BME280;5494;51.796;10.952;2023-09-12T05:15:49;98680.69;;;20.96;100.00
18988;BME280;5494;51.796;10.952;2023-09-12T05:18:17;98681.53;;;21.14;100.00
18988;BME280;5494;51.796;10.952;2023-09-12T05:20:46;98692.38;;;21.20;100.00
18988;BME280;5494;51.796;10.952;2023-09-12T05:23:14;98694.44;;;21.52;100.00
18988;BME280;5494;51.796;10.952;2023-09-12T05:25:43;98701.72;;;21.76;100.00
18988;BME280;5494;51.796;10.952;2023-09-12T05:28:12;98697.19;;;21.94;100.00
18988;BME280;5494;51.796;10.952;2023-09-12T05:30:45;98715.09;;;22.18;97.37
18988;BME280;5494;51.796;10.952;2023-09-12T05:33:13;98717.78;;;22.26;96.81
18988;BME280;5494;51.796;10.952;2023-09-12T05:35:45;98726.13;;;22.39;95.11
18988;BME280;5494;51.796;10.952;2023-09-12T05:38:13;98724.31;;;22.48;93.37
18988;BME280;5494;51.796;10.952;2023-09-12T05:40:42;98728.19;;;22.54;92.87
18988;BME280;5494;51.796;10.952;2023-09-12T05:43:10;98732.69;;;22.69;91.09
18988;BME280;5494;51.796;10.952;2023-09-12T05:45:38;98737.78;;;22.89;89.25
18988;BME280;5494;51.796;10.952;2023-09-12T05:48:07;98736.78;;;22.98;86.69
18988;BME280;5494;51.796;10.952;2023-09-12T05:50:37;98740.28;;;23.06;85.04
18988;BME280;5494;51.796;10.952;2023-09-12T05:53:05;98732.19;;;23.08;85.58
18988;BME280;5494;51.796;10.952;2023-09-12T05:55:34;98732.69;;;23.20;83.17
18988;BME280;5494;51.796;10.952;2023-09-12T05:58:04;98735.03;;;23.23;81.95
18988;BME280;5494;51.796;10.952;2023-09-12T06:00:34;98729.88;;;23.45;79.45
18988;BME280;5494;51.796;10.952;2023-09-12T06:03:02;98730.22;;;23.42;78.34
18988;BME280;5494;51.796;10.952;2023-09-12T06:05:31;98739.38;;;23.72;76.36
18988;BME280;5494;51.796;10.952;2023-09-12T06:07:59;98749.13;;;24.12;72.79
18988;BME280;5494;51.796;10.952;2023-09-12T06:10:28;98740.81;;;24.31;70.67
18988;BME280;5494;51.796;10.952;2023-09-12T06:12:56;98745.56;;;24.52;69.84
18988;BME280;5494;51.796;10.952;2023-09-12T06:15:25;98737.91;;;24.88;67.06
18988;BME280;5494;51.796;10.952;2023-09-12T06:17:54;98740.75;;;25.18;66.18
18988;BME280;5494;51.796;10.952;2023-09-12T06:20:22;98739.00;;;25.56;63.61
18988;BME280;5494;51.796;10.952;2023-09-12T06:22:51;98741.25;;;25.44;62.22
18988;BME280;5494;51.796;10.952;2023-09-12T06:25:19;98738.88;;;25.49;62.76
18988;BME280;5494;51.796;10.952;2023-09-12T06:27:47;98743.16;;;25.58;62.99
18988;BME280;5494;51.796;10.952;2023-09-12T06:30:16;98745.25;;;26.00;60.47
18988;BME280;5494;51.796;10.952;2023-09-12T06:32:47;98732.06;;;26.21;59.05
18988;BME280;5494;51.796;10.952;2023-09-12T06:35:15;98732.16;;;26.57;58.10
18988;BME280;5494;51.796;10.952;2023-09-12T06:37:44;98729.66;;;27.00;57.22
18988;BME280;5494;51.796;10.952;2023-09-12T06:40:13;98740.03;;;27.31;54.75
18988;BME280;5494;51.796;10.952;2023-09-12T06:42:42;98741.81;;;27.66;54.24
18988;BME280;5494;51.796;10.952;2023-09-12T06:45:11;98741.72;;;28.02;52.92
18988;BME280;5494;51.796;10.952;2023-09-12T06:47:39;98745.13;;;28.17;51.93
18988;BME280;5494;51.796;10.952;2023-09-12T06:50:09;98751.94;;;28.54;50.57
18988;BME280;5494;51.796;10.952;2023-09-12T06:52:42;98755.84;;;28.93;49.83
18988;BME280;5494;51.796;10.952;2023-09-12T06:55:10;98757.13;;;28.97;49.10
18988;BME280;5494;51.796;10.952;2023-09-12T06:57:38;98759.19;;;29.02;48.78
18988;BME280;5494;51.796;10.952;2023-09-12T07:00:09;98761.69;;;29.16;48.28
18988;BME280;5494;51.796;10.952;2023-09-12T07:02:38;98772.34;;;28.96;48.96
18988;BME280;5494;51.796;10.952;2023-09-12T07:05:07;98775.09;;;29.16;48.29
18988;BME280;5494;51.796;10.952;2023-09-12T07:07:36;98780.03;;;29.26;48.20
18988;BME280;5494;51.796;10.952;2023-09-12T07:10:06;98783.22;;;28.54;48.97
18988;BME280;5494;51.796;10.952;2023-09-12T07:12:50;98787.06;;;28.45;49.64
18988;BME280;5494;51.796;10.952;2023-09-12T07:15:18;98793.41;;;28.37;49.87
18988;BME280;5494;51.796;10.952;2023-09-12T07:17:47;98795.50;;;28.42;50.31
18988;BME280;5494;51.796;10.952;2023-09-12T07:20:15;98788.84;;;28.31;49.75
18988;BME280;5494;51.796;10.952;2023-09-12T07:22:46;98798.91;;;28.64;49.16
18988;BME280;5494;51.796;10.952;2023-09-12T07:25:14;98795.34;;;28.84;48.55
18988;BME280;5494;51.796;10.952;2023-09-12T07:27:43;98805.31;;;28.97;48.43
18988;BME280;5494;51.796;10.952;2023-09-12T07:30:12;98806.72;;;28.99;48.16
18988;BME280;5494;51.796;10.952;2023-09-12T07:32:40;98809.38;;;29.41;47.06
18988;BME280;5494;51.796;10.952;2023-09-12T07:35:08;98812.75;;;29.75;46.37
18988;BME280;5494;51.796;10.952;2023-09-12T07:37:37;98805.81;;;30.01;45.10
18988;BME280;5494;51.796;10.952;2023-09-12T07:40:08;98801.00;;;30.29;44.84
18988;BME280;5494;51.796;10.952;2023-09-12T07:42:39;98815.47;;;29.95;45.40
18988;BME280;5494;51.796;10.952;2023-09-12T07:45:08;98818.38;;;29.33;46.29
18988;BME280;5494;51.796;10.952;2023-09-12T07:47:36;98823.81;;;28.64;48.48
18988;BME280;5494;51.796;10.952;2023-09-12T07:50:06;98827.25;;;28.02;50.34
18988;BME280;5494;51.796;10.952;2023-09-12T07:52:34;98816.78;;;27.58;51.70
18988;BME280;5494;51.796;10.952;2023-09-12T07:55:04;98823.97;;;26.92;53.77
18988;BME280;5494;51.796;10.952;2023-09-12T07:57:34;98823.94;;;26.78;54.64
18988;BME280;5494;51.796;10.952;2023-09-12T08:00:06;98812.91;;;26.51;55.14
18988;BME280;5494;51.796;10.952;2023-09-12T08:02:38;98808.97;;;26.62;55.18
18988;BME280;5494;51.796;10.952;2023-09-12T08:05:07;98805.19;;;26.71;55.53
18988;BME280;5494;51.796;10.952;2023-09-12T08:07:36;98810.69;;;26.84;55.63
18988;BME280;5494;51.796;10.952;2023-09-12T08:10:05;98790.56;;;27.32;52.97
18988;BME280;5494;51.796;10.952;2023-09-12T08:12:36;98794.31;;;27.53;52.46
18988;BME280;5494;51.796;10.952;2023-09-12T08:15:07;98785.91;;;27.98;51.24
18988;BME280;5494;51.796;10.952;2023-09-12T08:17:36;98788.97;;;28.51;49.18
18988;BME280;5494;51.796;10.952;2023-09-12T08:20:07;98788.03;;;28.37;48.48
18988;BME280;5494;51.796;10.952;2023-09-12T08:22:37;98784.72;;;27.58;50.88
18988;BME280;5494;51.796;10.952;2023-09-12T08:25:05;98783.28;;;28.05;49.79
18988;BME280;5494;51.796;10.952;2023-09-12T08:27:35;98778.13;;;29.00;47.37
18988;BME280;5494;51.796;10.952;2023-09-12T08:30:05;98771.53;;;30.16;44.39
18988;BME280;5494;51.796;10.952;2023-09-12T08:32:33;98765.47;;;30.67;42.20
18988;BME280;5494;51.796;10.952;2023-09-12T08:35:01;98772.34;;;31.01;42.11
18988;BME280;5494;51.796;10.952;2023-09-12T08:37:30;98760.00;;;31.38;41.20
18988;BME280;5494;51.796;10.952;2023-09-12T08:39:58;98765.31;;;31.06;40.56
18988;BME280;5494;51.796;10.952;2023-09-12T08:42:27;98761.91;;;32.12;38.88
18988;BME280;5494;51.796;10.952;2023-09-12T08:44:57;98768.00;;;32.50;38.31
18988;BME280;5494;51.796;10.952;2023-09-12T08:47:26;98759.53;;;33.01;37.10
18988;BME280;5494;51.796;10.952;2023-09-12T08:49:55;98762.75;;;33.10;37.33
18988;BME280;5494;51.796;10.952;2023-09-12T08:52:24;98765.13;;;33.00;37.53
18988;BME280;5494;51.796;10.952;2023-09-12T08:54:52;98767.09;;;33.11;36.83
18988;BME280;5494;51.796;10.952;2023-09-12T08:57:21;98756.94;;;32.76;37.73
18988;BME280;5494;51.796;10.952;2023-09-12T08:59:50;98755.56;;;32.85;37.21
18988;BME280;5494;51.796;10.952;2023-09-12T09:02:21;98762.06;;;31.36;39.16
18988;BME280;5494;51.796;10.952;2023-09-12T09:04:50;98765.94;;;31.08;40.38
18988;BME280;5494;51.796;10.952;2023-09-12T09:07:20;98756.44;;;31.06;40.24
18988;BME280;5494;51.796;10.952;2023-09-12T09:09:49;98758.91;;;31.07;39.26
18988;BME280;5494;51.796;10.952;2023-09-12T09:12:20;98759.34;;;29.67;40.78
18988;BME280;5494;51.796;10.952;2023-09-12T09:14:48;98755.25;;;29.98;40.99
18988;BME280;5494;51.796;10.952;2023-09-12T09:17:17;98763.06;;;29.80;42.20
18988;BME280;5494;51.796;10.952;2023-09-12T09:20:04;98751.56;;;29.92;40.14
18988;BME280;5494;51.796;10.952;2023-09-12T09:22:35;98754.59;;;30.29;39.60
18988;BME280;5494;51.796;10.952;2023-09-12T09:25:11;98751.13;;;29.95;40.62
18988;BME280;5494;51.796;10.952;2023-09-12T09:27:40;98754.00;;;28.93;42.42
18988;BME280;5494;51.796;10.952;2023-09-12T09:30:10;98748.91;;;29.18;42.39
18988;BME280;5494;51.796;10.952;2023-09-12T09:32:38;98748.22;;;29.84;41.19
18988;BME280;5494;51.796;10.952;2023-09-12T09:35:09;98748.16;;;30.36;40.34
18988;BME280;5494;51.796;10.952;2023-09-12T09:37:38;98747.63;;;30.85;39.45
18988;BME280;5494;51.796;10.952;2023-09-12T09:40:08;98740.66;;;30.71;39.46
18988;BME280;5494;51.796;10.952;2023-09-12T09:42:37;98735.78;;;30.48;39.96
18988;BME280;5494;51.796;10.952;2023-09-12T09:45:07;98733.59;;;29.66;41.19
18988;BME280;5494;51.796;10.952;2023-09-12T09:47:35;98734.56;;;29.39;40.62
18988;BME280;5494;51.796;10.952;2023-09-12T09:50:04;98732.75;;;29.86;39.96
18988;BME280;5494;51.796;10.952;2023-09-12T09:52:34;98726.75;;;29.90;40.17
18988;BME280;5494;51.796;10.952;2023-09-12T09:55:02;98728.81;;;29.88;40.42
18988;BME280;5494;51.796;10.952;2023-09-12T09:57:37;98718.72;;;29.70;41.32
18988;BME280;5494;51.796;10.952;2023-09-12T10:00:07;98726.16;;;29.68;41.08
18988;BME280;5494;51.796;10.952;2023-09-12T10:02:43;98737.09;;;29.80;40.61
18988;BME280;5494;51.796;10.952;2023-09-12T10:05:14;98735.44;;;29.79;40.78
18988;BME280;5494;51.796;10.952;2023-09-12T10:07:49;98734.19;;;29.55;41.95
18988;BME280;5494;51.796;10.952;2023-09-12T10:10:19;98738.19;;;29.12;42.38
18988;BME280;5494;51.796;10.952;2023-09-12T10:12:52;98743.06;;;28.88;42.73
18988;BME280;5494;51.796;10.952;2023-09-12T10:15:23;98742.63;;;28.85;43.50
18988;BME280;5494;51.796;10.952;2023-09-12T10:17:57;98745.03;;;28.73;44.01
18988;BME280;5494;51.796;10.952;2023-09-12T10:20:35;98741.25;;;28.54;43.82
18988;BME280;5494;51.796;10.952;2023-09-12T10:23:13;98739.31;;;28.76;44.29
18988;BME280;5494;51.796;10.952;2023-09-12T10:25:45;98741.25;;;28.95;43.52
18988;BME280;5494;51.796;10.952;2023-09-12T10:28:17;98750.09;;;28.89;42.48
18988;BME280;5494;51.796;10.952;2023-09-12T10:30:46;98739.25;;;29.17;42.06
18988;BME280;5494;51.796;10.952;2023-09-12T10:33:16;98732.78;;;28.98;42.30
18988;BME280;5494;51.796;10.952;2023-09-12T10:35:46;98741.13;;;28.69;43.38
18988;BME280;5494;51.796;10.952;2023-09-12T10:38:18;98735.28;;;29.07;42.68
18988;BME280;5494;51.796;10.952;2023-09-12T10:40:52;98728.38;;;29.32;42.09
18988;BME280;5494;51.796;10.952;2023-09-12T10:43:21;98734.28;;;29.08;42.29
18988;BME280;5494;51.796;10.952;2023-09-12T10:45:52;98742.28;;;29.01;42.59
18988;BME280;5494;51.796;10.952;2023-09-12T10:48:20;98743.09;;;28.95;43.14
18988;BME280;5494;51.796;10.952;2023-09-12T10:50:49;98745.28;;;28.78;43.16
18988;BME280;5494;51.796;10.952;2023-09-12T10:53:23;98739.47;;;29.29;41.77
18988;BME280;5494;51.796;10.952;2023-09-12T10:56:14;98743.88;;;29.50;41.22
18988;BME280;5494;51.796;10.952;2023-09-12T10:59:13;98742.31;;;29.14;42.21
18988;BME280;5494;51.796;10.952;2023-09-12T11:01:43;98741.19;;;29.50;41.46
18988;BME280;5494;51.796;10.952;2023-09-12T11:04:34;98743.88;;;29.63;41.41
18988;BME280;5494;51.796;10.952;2023-09-12T11:07:44;98753.75;;;29.43;41.71
18988;BME280;5494;51.796;10.952;2023-09-12T11:10:19;98758.84;;;29.31;42.52
18988;BME280;5494;51.796;10.952;2023-09-12T11:12:50;98759.75;;;29.45;42.04
18988;BME280;5494;51.796;10.952;2023-09-12T11:15:21;98766.91;;;29.31;42.64
18988;BME280;5494;51.796;10.952;2023-09-12T11:18:00;98755.41;;;29.50;42.14
18988;BME280;5494;51.796;10.952;2023-09-12T11:20:52;98753.56;;;29.64;41.42
18988;BME280;5494;51.796;10.952;2023-09-12T11:23:21;98738.13;;;29.86;41.17
18988;BME280;5494;51.796;10.952;2023-09-12T11:26:03;98741.59;;;29.53;41.19
18988;BME280;5494;51.796;10.952;2023-09-12T11:28:33;98726.97;;;29.49;41.31
18988;BME280;5494;51.796;10.952;2023-09-12T11:31:01;98722.00;;;29.46;40.87
18988;BME280;5494;51.796;10.952;2023-09-12T11:33:32;98727.91;;;29.09;41.82
18988;BME280;5494;51.796;10.952;2023-09-12T11:36:02;98729.28;;;28.98;42.66
18988;BME280;5494;51.796;10.952;2023-09-12T11:38:37;98742.88;;;28.49;41.64
18988;BME280;5494;51.796;10.952;2023-09-12T11:41:07;98739.91;;;27.81;42.47
18988;BME280;5494;51.796;10.952;2023-09-12T11:43:38;98745.19;;;28.24;41.69
18988;BME280;5494;51.796;10.952;2023-09-12T11:46:08;98744.25;;;28.38;40.85
18988;BME280;5494;51.796;10.952;2023-09-12T11:48:38;98736.72;;;28.55;40.28
18988;BME280;5494;51.796;10.952;2023-09-12T11:51:07;98759.06;;;28.41;39.91
18988;BME280;5494;51.796;10.952;2023-09-12T11:53:36;98751.06;;;28.75;40.41
18988;BME280;5494;51.796;10.952;2023-09-12T11:56:04;98753.25;;;28.72;40.67
18988;BME280;5494;51.796;10.952;2023-09-12T11:58:35;98750.06;;;28.83;41.16
18988;BME280;5494;51.796;10.952;2023-09-12T12:01:03;98753.47;;;28.36;41.73
18988;BME280;5494;51.796;10.952;2023-09-12T12:03:31;98752.19;;;27.76;42.16
18988;BME280;5494;51.796;10.952;2023-09-12T12:06:00;98746.88;;;27.55;43.46
18988;BME280;5494;51.796;10.952;2023-09-12T12:08:28;98753.19;;;27.96;43.87
18988;BME280;5494;51.796;10.952;2023-09-12T12:10:59;98747.88;;;27.54;44.33
18988;BME280;5494;51.796;10.952;2023-09-12T12:13:28;98753.03;;;27.55;44.90
18988;BME280;5494;51.796;10.952;2023-09-12T12:15:58;98744.72;;;27.65;45.43
18988;BME280;5494;51.796;10.952;2023-09-12T12:18:26;98753.03;;;28.04;44.36
18988;BME280;5494;51.796;10.952;2023-09-12T12:20:55;98757.09;;;28.21;43.80
18988;BME280;5494;51.796;10.952;2023-09-12T12:23:23;98761.50;;;28.36;44.18
18988;BME280;5494;51.796;10.952;2023-09-12T12:25:51;98754.28;;;28.08;51.93
18988;BME280;5494;51.796;10.952;2023-09-12T12:28:21;98756.38;;;27.85;54.31
18988;BME280;5494;51.796;10.952;2023-09-12T12:30:52;98756.47;;;27.70;55.51
18988;BME280;5494;51.796;10.952;2023-09-12T12:33:23;98753.53;;;27.44;57.28
18988;BME280;5494;51.796;10.952;2023-09-12T12:36:11;98755.22;;;27.09;59.21
18988;BME280;5494;51.796;10.952;2023-09-12T12:38:40;98762.34;;;27.23;59.68
18988;BME280;5494;51.796;10.952;2023-09-12T12:41:25;98760.44;;;27.38;59.45
18988;BME280;5494;51.796;10.952;2023-09-12T12:44:02;98755.38;;;27.43;57.97
18988;BME280;5494;51.796;10.952;2023-09-12T12:46:31;98756.63;;;27.48;56.83
18988;BME280;5494;51.796;10.952;2023-09-12T12:49:01;98752.56;;;27.52;55.75
18988;BME280;5494;51.796;10.952;2023-09-12T12:51:30;98744.00;;;26.99;55.38
18988;BME280;5494;51.796;10.952;2023-09-12T12:54:04;98743.78;;;27.15;54.66
18988;BME280;5494;51.796;10.952;2023-09-12T12:56:34;98751.53;;;27.10;52.66
18988;BME280;5494;51.796;10.952;2023-09-12T12:59:06;98749.81;;;26.73;52.88
18988;BME280;5494;51.796;10.952;2023-09-12T13:01:37;98748.75;;;26.53;52.53
18988;BME280;5494;51.796;10.952;2023-09-12T13:04:08;98737.91;;;26.40;50.84
18988;BME280;5494;51.796;10.952;2023-09-12T13:06:36;98741.81;;;26.73;49.64
18988;BME280;5494;51.796;10.952;2023-09-12T13:09:06;98734.66;;;26.74;46.92
18988;BME280;5494;51.796;10.952;2023-09-12T13:11:36;98725.97;;;27.01;46.94
18988;BME280;5494;51.796;10.952;2023-09-12T13:14:04;98725.25;;;26.78;47.23
18988;BME280;5494;51.796;10.952;2023-09-12T13:16:37;98731.25;;;26.50;48.74